Asbury, West Virginia
Current Conditions -  °F | °C
As of 4:15 PM on Monday 24 Nov 2014 (Local Time) from KLWB Reporting Station
Clear Clear  
Wind Chill: 69°   Ceiling: Unl
Heat Index: 69°   Visibility: 10mi
Dew Point: 34°   Wind: 21mph
Humidity: 28%   Direction: 230°SW
Pressure: 29.7"   Gusts: 33mph
Location:  37.82°N, 80.56°W
Report Text: KLWB 242115Z AUTO 23018G29KT 10SM CLR 21/01 A2970 RMK AO2 T02060013
Loading
Personal Weather Stations






























Interactive Weather Map New forecast layout! Learn more

10-Day Weather Forecast

Advertisements
Track Severe Weather on mobile